createdAt,value
2018-04-04T00:02:23.719Z,10.43
2018-04-04T00:04:51.476Z,10.50
2018-04-04T00:07:19.276Z,10.50
2018-04-04T00:09:46.988Z,9.97
2018-04-04T00:12:14.760Z,10.97
2018-04-04T00:14:42.531Z,11.07
2018-04-04T00:17:11.207Z,12.63
2018-04-04T00:19:38.921Z,13.27
2018-04-04T00:22:06.691Z,11.37
2018-04-04T00:24:34.475Z,9.70
2018-04-04T00:27:02.254Z,9.97
2018-04-04T00:29:30.568Z,9.03
2018-04-04T00:31:58.338Z,8.00
2018-04-04T00:34:26.049Z,8.70
2018-04-04T00:36:53.844Z,8.07
2018-04-04T00:39:22.317Z,7.97
2018-04-04T00:41:50.115Z,9.00
2018-04-04T00:44:17.882Z,8.97
2018-04-04T00:46:45.662Z,8.27
2018-04-04T00:49:13.445Z,8.33
2018-04-04T00:51:41.152Z,7.73
2018-04-04T00:54:09.192Z,7.67
2018-04-04T00:56:36.962Z,7.50
2018-04-04T00:59:04.749Z,8.30
2018-04-04T01:01:32.521Z,8.80
2018-04-04T01:04:00.231Z,9.40
2018-04-04T01:06:28.003Z,11.33
2018-04-04T01:08:55.771Z,11.10
2018-04-04T01:11:23.470Z,12.30
2018-04-04T01:13:51.183Z,14.60
2018-04-04T01:16:18.928Z,15.70
2018-04-04T01:18:46.720Z,15.90
2018-04-04T01:21:14.494Z,15.93
2018-04-04T01:23:42.210Z,15.97
2018-04-04T01:26:09.930Z,19.42
2018-04-04T01:28:37.651Z,17.97
2018-04-04T01:31:05.689Z,16.13
2018-04-04T01:33:33.417Z,16.20
2018-04-04T01:36:01.131Z,17.80
2018-04-04T01:38:28.907Z,16.33
2018-04-04T01:40:56.621Z,16.23
2018-04-04T01:43:24.324Z,16.27
2018-04-04T01:45:53.045Z,15.27
2018-04-04T01:48:20.843Z,17.40
2018-04-04T01:50:48.616Z,16.10
2018-04-04T01:53:16.336Z,18.93
2018-04-04T01:55:44.065Z,16.90
2018-04-04T01:58:11.821Z,18.83
2018-04-04T02:00:39.529Z,17.60
2018-04-04T02:03:07.300Z,16.57
2018-04-04T02:05:35.005Z,18.33
2018-04-04T02:08:02.722Z,16.43
2018-04-04T02:10:30.480Z,17.27
2018-04-04T02:12:58.197Z,19.07
2018-04-04T02:15:25.977Z,16.63
2018-04-04T02:17:53.749Z,17.80
2018-04-04T02:20:21.446Z,17.33
2018-04-04T02:22:49.200Z,16.27
2018-04-04T02:25:17.168Z,16.87
2018-04-04T02:27:44.931Z,16.63
2018-04-04T02:30:12.636Z,15.63
2018-04-04T02:32:41.396Z,16.30
2018-04-04T02:35:09.113Z,16.60
2018-04-04T02:37:36.824Z,16.00
2018-04-04T02:40:04.536Z,13.53
2018-04-04T02:42:32.296Z,10.80
2018-04-04T02:45:00.198Z,9.63
2018-04-04T02:47:27.973Z,8.60
2018-04-04T02:49:55.761Z,8.90
2018-04-04T02:52:23.452Z,9.50
2018-04-04T02:54:51.932Z,9.10
2018-04-04T02:57:19.675Z,9.90
2018-04-04T02:59:47.477Z,9.00
2018-04-04T03:02:15.230Z,8.00
2018-04-04T03:04:42.989Z,8.87
2018-04-04T03:07:10.732Z,9.53
2018-04-04T03:09:38.485Z,8.30
2018-04-04T03:12:06.195Z,9.83
2018-04-04T03:14:34.681Z,8.80
2018-04-04T03:17:02.392Z,9.90
2018-04-04T03:19:30.174Z,11.77
2018-04-04T03:21:57.932Z,11.33
2018-04-04T03:24:25.636Z,11.73
2018-04-04T03:26:53.345Z,10.60
2018-04-04T03:29:21.879Z,11.33
2018-04-04T03:31:49.666Z,11.50
2018-04-04T03:34:17.392Z,12.70
2018-04-04T03:36:45.162Z,15.77
2018-04-04T03:39:12.874Z,13.93
2018-04-04T03:41:40.586Z,15.27
2018-04-04T03:44:08.307Z,15.13
2018-04-04T03:46:36.364Z,14.07
2018-04-04T03:49:04.098Z,16.10
2018-04-04T03:51:31.859Z,16.53
2018-04-04T03:53:59.642Z,15.27
2018-04-04T03:56:27.421Z,17.20
2018-04-04T03:58:55.203Z,17.40
2018-04-04T04:01:22.923Z,18.57
2018-04-04T04:03:50.705Z,17.77
2018-04-04T04:06:18.430Z,16.10
2018-04-04T04:08:46.225Z,17.20
2018-04-04T04:11:14.005Z,17.07
2018-04-04T04:13:41.737Z,15.57
2018-04-04T04:16:09.462Z,16.70
2018-04-04T04:18:37.248Z,16.37
2018-04-04T04:21:04.952Z,15.17
2018-04-04T04:23:32.668Z,14.40
2018-04-04T04:26:01.233Z,15.90
2018-04-04T04:28:29.081Z,15.77
2018-04-04T04:30:56.797Z,15.17
2018-04-04T04:33:24.494Z,15.30
2018-04-04T04:35:53.196Z,14.57
2018-04-04T04:38:20.954Z,14.00
2018-04-04T04:40:48.670Z,15.27
2018-04-04T04:43:16.939Z,13.30
2018-04-04T04:45:44.838Z,13.17
2018-04-04T04:48:12.670Z,13.00
2018-04-04T04:50:40.507Z,12.73
2018-04-04T04:53:08.331Z,11.40
2018-04-04T04:55:36.824Z,10.43
2018-04-04T04:58:04.661Z,10.33
2018-04-04T05:00:38.612Z,10.00
2018-04-04T05:03:07.482Z,9.80
2018-04-04T05:05:35.188Z,8.87
2018-04-04T05:08:02.899Z,9.70
2018-04-04T05:10:30.714Z,8.83
2018-04-04T05:12:58.498Z,9.03
2018-04-04T05:15:26.272Z,9.70
2018-04-04T05:17:54.030Z,9.17
2018-04-04T05:20:21.750Z,9.80
2018-04-04T05:22:49.484Z,10.00
2018-04-04T05:25:17.254Z,10.73
2018-04-04T05:27:44.975Z,9.10
2018-04-04T05:30:13.480Z,9.63
2018-04-04T05:32:41.956Z,9.37
2018-04-04T05:35:09.725Z,8.83
2018-04-04T05:37:37.520Z,9.00
2018-04-04T05:40:05.246Z,9.20
2018-04-04T05:42:33.078Z,8.80
2018-04-04T05:45:01.609Z,9.13
2018-04-04T05:47:29.389Z,9.07
2018-04-04T05:49:57.165Z,10.30
2018-04-04T05:52:24.978Z,7.63
2018-04-04T05:54:52.776Z,8.50
2018-04-04T05:57:20.540Z,9.30
2018-04-04T05:59:48.255Z,8.00
2018-04-04T06:02:16.079Z,8.43
2018-04-04T06:04:43.778Z,8.30
2018-04-04T06:07:11.536Z,7.13
2018-04-04T06:09:39.243Z,8.37
2018-04-04T06:12:07.018Z,7.90
2018-04-04T06:14:34.719Z,7.90
2018-04-04T06:17:02.485Z,8.13
2018-04-04T06:19:30.246Z,8.30
2018-04-04T06:21:58.027Z,8.00
2018-04-04T06:24:25.789Z,8.90
2018-04-04T06:26:53.564Z,8.10
2018-04-04T06:29:21.259Z,9.20
2018-04-04T06:31:49.795Z,8.20
2018-04-04T06:34:17.558Z,9.23
2018-04-04T06:36:45.268Z,7.67
2018-04-04T06:39:13.887Z,8.20
2018-04-04T06:41:41.584Z,8.20
2018-04-04T06:44:09.345Z,7.63
2018-04-04T06:46:37.060Z,8.03
2018-04-04T06:49:04.836Z,7.83
2018-04-04T06:51:32.616Z,7.30
2018-04-04T06:54:00.322Z,6.50
2018-04-04T06:56:28.084Z,6.70
2018-04-04T06:58:55.795Z,6.30
2018-04-04T07:01:23.511Z,6.43
2018-04-04T07:03:51.227Z,6.93
2018-04-04T07:06:19.700Z,6.40
2018-04-04T07:08:47.484Z,6.63
2018-04-04T07:11:15.196Z,7.60
2018-04-04T07:13:42.942Z,6.27
2018-04-04T07:16:11.080Z,6.20
2018-04-04T07:18:38.836Z,6.47
2018-04-04T07:21:06.544Z,7.20
2018-04-04T07:23:34.296Z,5.40
2018-04-04T07:26:02.073Z,6.40
2018-04-04T07:28:29.832Z,5.77
2018-04-04T07:30:57.871Z,6.43
2018-04-04T07:33:25.655Z,6.30
2018-04-04T07:35:54.153Z,6.60
2018-04-04T07:38:21.926Z,7.60
2018-04-04T07:40:49.714Z,8.10
2018-04-04T07:43:17.522Z,7.67
2018-04-04T07:45:45.293Z,7.47
2018-04-04T07:48:13.054Z,7.30
2018-04-04T07:50:40.823Z,7.23
2018-04-04T07:53:08.555Z,6.60
2018-04-04T07:55:36.255Z,8.43
2018-04-04T07:58:04.014Z,9.00
2018-04-04T08:00:31.701Z,8.80
2018-04-04T08:03:00.312Z,7.97
2018-04-04T08:05:28.087Z,8.30
2018-04-04T08:07:55.814Z,8.50
2018-04-04T08:10:23.574Z,8.37
2018-04-04T08:12:51.383Z,7.97
2018-04-04T08:15:19.110Z,8.20
2018-04-04T08:17:46.893Z,7.47
2018-04-04T08:20:14.608Z,8.00
2018-04-04T08:22:42.310Z,7.70
2018-04-04T08:25:10.016Z,7.30
2018-04-04T08:27:37.772Z,8.70
2018-04-04T08:30:09.357Z,6.97
2018-04-04T08:32:37.130Z,7.13
2018-04-04T08:35:04.850Z,7.10
2018-04-04T08:37:32.561Z,6.87
2018-04-04T08:40:00.291Z,6.87
2018-04-04T08:42:29.248Z,7.10
2018-04-04T08:44:57.010Z,6.80
2018-04-04T08:47:24.755Z,6.27
2018-04-04T08:49:52.532Z,6.23
2018-04-04T08:52:20.289Z,5.90
2018-04-04T08:54:48.010Z,6.30
2018-04-04T08:57:15.735Z,6.40
2018-04-04T08:59:43.492Z,7.60
2018-04-04T09:02:11.253Z,8.93
2018-04-04T09:04:39.020Z,6.80
2018-04-04T09:07:06.720Z,7.30
2018-04-04T09:09:35.326Z,7.90
2018-04-04T09:12:03.047Z,5.77
2018-04-04T09:14:30.868Z,7.43
2018-04-04T09:16:58.566Z,7.07
2018-04-04T09:19:26.344Z,8.30
2018-04-04T09:21:56.616Z,9.60
2018-04-04T09:24:24.384Z,9.30
2018-04-04T09:26:52.119Z,10.67
2018-04-04T09:29:19.883Z,11.00
2018-04-04T09:31:48.074Z,11.17
2018-04-04T09:34:15.785Z,9.70
2018-04-04T09:36:44.605Z,9.80
2018-04-04T09:39:12.375Z,9.47
2018-04-04T09:41:40.153Z,9.97
2018-04-04T09:44:07.878Z,9.10
2018-04-04T09:46:35.591Z,10.40
2018-04-04T09:49:03.394Z,10.40
2018-04-04T09:51:31.118Z,10.70
2018-04-04T09:53:58.850Z,11.33
2018-04-04T09:56:26.616Z,9.83
2018-04-04T09:58:54.337Z,9.57
2018-04-04T10:01:28.580Z,10.60
2018-04-04T10:03:56.339Z,10.33
2018-04-04T10:06:24.062Z,10.50
2018-04-04T10:08:51.835Z,9.27
2018-04-04T10:11:19.549Z,10.60
2018-04-04T10:13:47.264Z,8.90
2018-04-04T10:16:15.050Z,9.60
2018-04-04T10:18:42.749Z,11.67
2018-04-04T10:21:10.522Z,11.10
2018-04-04T10:23:38.302Z,13.10
2018-04-04T10:26:06.109Z,12.70
2018-04-04T10:28:33.873Z,12.30
2018-04-04T10:31:01.642Z,11.97
2018-04-04T10:33:29.376Z,11.80
2018-04-04T10:35:57.111Z,10.93
2018-04-04T10:38:24.875Z,12.77
2018-04-04T10:40:52.592Z,11.50
2018-04-04T10:43:20.367Z,10.77
2018-04-04T10:45:48.174Z,10.90
2018-04-04T10:48:15.969Z,10.60
2018-04-04T10:50:43.721Z,11.90
2018-04-04T10:53:11.484Z,10.40
2018-04-04T10:55:39.274Z,9.57
2018-04-04T10:58:06.999Z,11.10
2018-04-04T11:00:34.719Z,10.57
2018-04-04T11:03:02.486Z,10.13
2018-04-04T11:05:30.261Z,10.10
2018-04-04T11:07:57.979Z,9.80
2018-04-04T11:10:25.753Z,8.80
2018-04-04T11:12:53.465Z,9.73
2018-04-04T11:15:21.933Z,8.70
2018-04-04T11:17:49.640Z,8.50
2018-04-04T11:20:17.382Z,8.23
2018-04-04T11:22:45.144Z,8.73
2018-04-04T11:25:12.854Z,9.23
2018-04-04T11:27:40.622Z,7.97
2018-04-04T11:30:08.319Z,9.33
2018-04-04T11:32:36.864Z,8.60
2018-04-04T11:35:04.572Z,9.43
2018-04-04T11:37:32.279Z,8.70
2018-04-04T11:40:00.787Z,8.77
2018-04-04T11:42:28.598Z,8.70
2018-04-04T11:44:56.813Z,8.47
2018-04-04T11:47:24.591Z,8.30
2018-04-04T11:49:52.363Z,9.50
2018-04-04T11:52:20.076Z,8.70
2018-04-04T11:54:47.792Z,9.30
2018-04-04T11:57:15.854Z,9.10
2018-04-04T11:59:43.590Z,9.13
2018-04-04T12:02:11.331Z,8.83
2018-04-04T12:04:39.858Z,9.47
2018-04-04T12:07:08.437Z,10.13
2018-04-04T12:09:36.211Z,10.47
2018-04-04T12:12:03.934Z,10.17
2018-04-04T12:14:31.710Z,9.90
2018-04-04T12:16:59.444Z,8.93
2018-04-04T12:19:27.233Z,9.00
2018-04-04T12:21:54.996Z,10.80
2018-04-04T12:24:22.730Z,9.63
2018-04-04T12:26:50.447Z,11.10
2018-04-04T12:29:18.202Z,10.47
2018-04-04T12:31:45.933Z,10.23
2018-04-04T12:34:13.731Z,10.80
2018-04-04T12:36:41.438Z,11.23
2018-04-04T12:39:09.225Z,10.80
2018-04-04T12:41:37.015Z,11.70
2018-04-04T12:44:04.841Z,11.47
2018-04-04T12:46:33.507Z,11.20
2018-04-04T12:49:01.281Z,11.50
2018-04-04T12:51:29.082Z,11.30
2018-04-04T12:53:56.840Z,10.60
2018-04-04T12:56:25.453Z,12.30
2018-04-04T12:58:53.300Z,12.73
2018-04-04T13:01:21.054Z,12.50
2018-04-04T13:03:48.913Z,11.00
2018-04-04T13:06:17.524Z,11.77
2018-04-04T13:08:45.347Z,11.70
2018-04-04T13:11:13.134Z,10.93
2018-04-04T13:13:41.714Z,10.53
2018-04-04T13:16:09.497Z,11.47
2018-04-04T13:18:37.221Z,11.23
2018-04-04T13:21:04.959Z,11.27
2018-04-04T13:23:32.673Z,10.67
2018-04-04T13:26:00.452Z,10.00
2018-04-04T13:28:28.186Z,10.43
2018-04-04T13:30:55.954Z,11.03
2018-04-04T13:33:23.711Z,9.33
2018-04-04T13:35:51.417Z,10.50
2018-04-04T13:38:19.920Z,10.80
2018-04-04T13:40:47.629Z,11.07
2018-04-04T13:43:15.411Z,10.53
2018-04-04T13:45:43.191Z,10.80
2018-04-04T13:48:10.947Z,11.73
2018-04-04T13:50:38.679Z,10.07
2018-04-04T13:53:06.456Z,9.70
2018-04-04T13:55:34.231Z,10.60
2018-04-04T13:58:02.003Z,3.90
2018-04-04T14:00:29.717Z,2.23
2018-04-04T14:02:57.501Z,1.50
2018-04-04T14:05:25.242Z,1.60
2018-04-04T14:07:53.011Z,1.63
2018-04-04T14:10:20.793Z,1.60
2018-04-04T14:12:48.559Z,1.47
2018-04-04T14:15:16.369Z,1.53
2018-04-04T14:17:44.174Z,2.33
2018-04-04T14:20:11.912Z,1.30
2018-04-04T14:22:39.693Z,1.73
2018-04-04T14:25:07.405Z,6.50
2018-04-04T14:27:35.168Z,1.70
2018-04-04T14:30:02.956Z,2.10
2018-04-04T14:32:30.887Z,1.60
2018-04-04T14:34:58.604Z,1.20
2018-04-04T14:37:26.321Z,1.47
2018-04-04T14:39:54.091Z,1.20
2018-04-04T14:42:21.857Z,1.50
2018-04-04T14:44:49.583Z,1.70
2018-04-04T14:47:17.305Z,1.50
2018-04-04T14:49:45.071Z,2.27
2018-04-04T14:52:12.796Z,1.70
2018-04-04T14:54:41.278Z,1.33
2018-04-04T14:57:09.050Z,1.03
2018-04-04T14:59:36.828Z,2.00
2018-04-04T15:02:04.683Z,1.37
2018-04-04T15:04:32.469Z,1.43
2018-04-04T15:07:00.183Z,0.67
2018-04-04T15:09:27.934Z,1.00
2018-04-04T15:11:55.643Z,0.87
2018-04-04T15:14:23.430Z,1.20
2018-04-04T15:16:51.151Z,1.00
2018-04-04T15:19:18.851Z,2.53
2018-04-04T15:21:47.372Z,1.10
2018-04-04T15:24:15.128Z,1.70
2018-04-04T15:26:42.840Z,1.27
2018-04-04T15:29:10.537Z,1.60
2018-04-04T15:31:39.049Z,1.33
2018-04-04T15:34:06.819Z,1.77
2018-04-04T15:36:34.498Z,2.53
2018-04-04T15:39:02.213Z,1.90
2018-04-04T15:41:30.740Z,1.20
2018-04-04T15:43:58.447Z,2.03
2018-04-04T15:46:26.216Z,1.67
2018-04-04T15:48:53.976Z,2.10
2018-04-04T15:51:23.049Z,1.70
2018-04-04T15:53:50.843Z,2.03
2018-04-04T15:56:18.559Z,2.13
2018-04-04T15:58:46.314Z,2.30
2018-04-04T16:01:14.142Z,2.30
2018-04-04T16:03:41.976Z,2.00
2018-04-04T16:06:09.811Z,2.13
2018-04-04T16:08:37.592Z,4.23
2018-04-04T16:11:05.321Z,3.03
2018-04-04T16:13:33.831Z,3.00
2018-04-04T16:16:01.602Z,2.43
2018-04-04T16:18:29.319Z,3.80
2018-04-04T16:20:57.036Z,4.05
2018-04-04T16:23:24.846Z,3.53
2018-04-04T16:25:52.573Z,3.87
2018-04-04T16:28:20.262Z,3.90
2018-04-04T16:30:48.093Z,4.37
2018-04-04T16:33:17.657Z,3.47
2018-04-04T16:35:45.444Z,4.03
2018-04-04T16:38:14.017Z,4.40
2018-04-04T16:40:41.741Z,2.80
2018-04-04T16:43:09.449Z,3.47
2018-04-04T16:45:38.675Z,3.50
2018-04-04T16:48:06.418Z,6.30
2018-04-04T16:50:35.011Z,6.53
2018-04-04T16:53:02.842Z,6.30
2018-04-04T16:55:32.396Z,8.27
2018-04-04T16:58:01.750Z,7.70
2018-04-04T17:03:29.538Z,8.20
2018-04-04T17:05:59.748Z,7.13
2018-04-04T17:08:27.577Z,7.30
2018-04-04T17:10:56.039Z,6.90
2018-04-04T17:13:23.777Z,7.17
2018-04-04T17:15:51.622Z,6.20
2018-04-04T17:18:19.434Z,8.40
2018-04-04T17:20:47.268Z,6.33
2018-04-04T17:23:15.084Z,7.30
2018-04-04T17:25:42.799Z,7.60
2018-04-04T17:28:10.605Z,6.97
2018-04-04T17:30:38.790Z,7.00
2018-04-04T17:33:06.496Z,6.60
2018-04-04T17:35:34.378Z,7.40
2018-04-04T17:38:02.208Z,7.30
2018-04-04T17:40:30.235Z,7.30
2018-04-04T17:42:58.372Z,6.47
2018-04-04T17:45:28.339Z,6.80
2018-04-04T17:47:56.291Z,7.50
2018-04-04T17:50:24.314Z,6.30
2018-04-04T17:52:52.831Z,6.33
2018-04-04T17:55:20.655Z,6.67
2018-04-04T17:57:49.726Z,7.30
2018-04-04T18:00:17.527Z,6.17
2018-04-04T18:02:45.287Z,5.60
2018-04-04T18:05:14.070Z,7.13
2018-04-04T18:07:44.151Z,6.30
2018-04-04T18:10:13.813Z,7.03
2018-04-04T18:12:45.013Z,7.80
2018-04-04T18:15:13.646Z,6.53
2018-04-04T18:17:49.397Z,6.33
2018-04-04T18:20:18.066Z,7.23
2018-04-04T18:22:45.970Z,6.70
2018-04-04T18:25:26.634Z,6.70
2018-04-04T18:27:54.417Z,8.00
2018-04-04T18:30:22.225Z,6.50
2018-04-04T18:32:50.019Z,6.73
2018-04-04T18:35:17.830Z,6.60
2018-04-04T18:37:45.567Z,6.80
2018-04-04T18:40:13.342Z,7.40
2018-04-04T18:42:41.126Z,7.10
2018-04-04T18:45:08.854Z,7.50
2018-04-04T18:47:37.518Z,6.83
2018-04-04T18:50:05.264Z,6.83
2018-04-04T18:52:32.998Z,6.80
2018-04-04T18:55:00.975Z,7.40
2018-04-04T18:57:28.711Z,7.03
2018-04-04T18:59:56.423Z,6.87
2018-04-04T19:02:24.149Z,8.20
2018-04-04T19:04:51.921Z,7.37
2018-04-04T19:07:19.624Z,7.60
2018-04-04T19:09:47.323Z,5.87
2018-04-04T19:12:15.036Z,5.77
2018-04-04T19:14:43.723Z,5.40
2018-04-04T19:17:12.192Z,5.43
2018-04-04T19:19:42.143Z,5.77
2018-04-04T19:22:09.849Z,4.07
2018-04-04T19:24:37.716Z,5.83
2018-04-04T19:27:05.420Z,5.00
2018-04-04T19:29:33.894Z,5.20
2018-04-04T19:32:01.615Z,5.93
2018-04-04T19:34:29.334Z,4.90
2018-04-04T19:36:57.104Z,3.90
2018-04-04T19:39:25.619Z,4.77
2018-04-04T19:41:53.392Z,4.33
2018-04-04T19:44:21.140Z,4.00
2018-04-04T19:46:48.837Z,3.90
2018-04-04T19:49:23.448Z,3.60
2018-04-04T19:51:58.192Z,2.53
2018-04-04T19:54:25.982Z,2.67
2018-04-04T19:56:55.032Z,4.10
2018-04-04T19:59:23.610Z,3.07
2018-04-04T20:01:51.732Z,2.90
2018-04-04T20:04:21.445Z,2.07
2018-04-04T20:06:49.139Z,1.93
2018-04-04T20:09:18.453Z,2.63
2018-04-04T20:11:49.785Z,2.57
2018-04-04T20:15:06.758Z,1.30
2018-04-04T20:17:36.820Z,1.93
2018-04-04T20:20:06.469Z,1.40
2018-04-04T20:22:36.168Z,1.50
2018-04-04T20:25:04.749Z,1.80
2018-04-04T20:27:37.862Z,1.70
2018-04-04T20:30:07.649Z,4.83
2018-04-04T20:32:38.027Z,5.23
2018-04-04T20:35:05.971Z,2.47
2018-04-04T20:37:34.503Z,1.90
2018-04-04T20:40:03.626Z,2.17
2018-04-04T20:42:31.324Z,1.77
2018-04-04T20:44:59.048Z,2.20
2018-04-04T20:47:26.778Z,1.70
2018-04-04T20:49:54.465Z,1.40
2018-04-04T20:52:22.183Z,1.47
2018-04-04T20:54:49.917Z,1.40
2018-04-04T20:57:17.615Z,1.60
2018-04-04T20:59:45.354Z,1.17
2018-04-04T21:02:13.070Z,2.00
2018-04-04T21:04:40.782Z,1.90
2018-04-04T21:07:08.480Z,1.60
2018-04-04T21:09:36.198Z,2.20
2018-04-04T21:12:03.925Z,1.40
2018-04-04T21:14:31.607Z,1.73
2018-04-04T21:16:59.330Z,1.40
2018-04-04T21:19:27.047Z,1.90
2018-04-04T21:21:54.756Z,2.20
2018-04-04T21:24:22.497Z,2.40
2018-04-04T21:26:52.622Z,1.80
2018-04-04T21:29:20.314Z,1.73
2018-04-04T21:31:48.784Z,1.50
2018-04-04T21:34:16.533Z,2.10
2018-04-04T21:36:44.760Z,1.70
2018-04-04T21:39:12.491Z,2.10
2018-04-04T21:41:40.194Z,2.13
2018-04-04T21:44:07.911Z,1.73
2018-04-04T21:46:35.633Z,1.80
2018-04-04T21:49:03.351Z,2.23
2018-04-04T21:51:31.845Z,2.40
2018-04-04T21:53:59.572Z,2.30
2018-04-04T21:56:27.286Z,1.57
2018-04-04T21:58:54.999Z,5.17
2018-04-04T22:01:22.721Z,8.60
2018-04-04T22:03:50.409Z,9.40
2018-04-04T22:06:18.108Z,6.80
2018-04-04T22:08:45.816Z,7.20
2018-04-04T22:11:13.536Z,4.77
2018-04-04T22:13:41.259Z,2.60
2018-04-04T22:16:09.162Z,1.63
2018-04-04T22:18:36.898Z,2.57
2018-04-04T22:21:04.597Z,1.60
2018-04-04T22:23:32.327Z,3.40
2018-04-04T22:26:00.024Z,1.60
2018-04-04T22:28:27.729Z,2.07
2018-04-04T22:30:55.480Z,1.33
2018-04-04T22:33:23.211Z,0.93
2018-04-04T22:35:50.917Z,0.90
2018-04-04T22:38:19.269Z,1.77
2018-04-04T22:40:46.986Z,1.00
2018-04-04T22:43:15.521Z,1.03
2018-04-04T22:45:43.237Z,0.93
2018-04-04T22:48:10.935Z,0.77
2018-04-04T22:50:38.666Z,0.80
2018-04-04T22:53:06.377Z,0.80
2018-04-04T22:55:34.091Z,1.00
2018-04-04T22:58:01.828Z,1.40
2018-04-04T23:00:29.560Z,1.03
2018-04-04T23:02:57.278Z,1.17
2018-04-04T23:05:25.740Z,1.20
2018-04-04T23:07:53.452Z,1.50
2018-04-04T23:10:21.163Z,1.40
2018-04-04T23:12:48.869Z,1.30
2018-04-04T23:15:16.637Z,1.77
2018-04-04T23:17:44.358Z,2.10
2018-04-04T23:20:12.069Z,1.37
2018-04-04T23:22:39.789Z,1.23
2018-04-04T23:25:07.494Z,1.40
2018-04-04T23:27:35.982Z,2.17
2018-04-04T23:30:03.695Z,5.73
2018-04-04T23:32:31.395Z,6.97
2018-04-04T23:34:59.934Z,8.50
2018-04-04T23:37:27.674Z,10.07
2018-04-04T23:39:55.400Z,12.43
2018-04-04T23:42:23.103Z,12.67
2018-04-04T23:44:50.834Z,14.30
2018-04-04T23:47:18.549Z,13.47
2018-04-04T23:49:46.281Z,12.63
2018-04-04T23:52:13.992Z,13.33
2018-04-04T23:54:42.252Z,13.47
2018-04-04T23:57:09.955Z,13.90
2018-04-04T23:59:37.660Z,12.80
